Time;durP1;ratioP1;P1;durP2;ratioP2;P2;SDS_P1;SDS_P2;PMS_P1;PMS_P2;Temp;Humidity;BMP_temperature;BMP_pressure;BME280_temperature;BME280_humidity;BME280_pressure;Samples;Min_cycle;Max_cycle;Signal;HPM_P1;HPM_P2
2023/10/30 00:00:54;;;;;;;11.40;2.60;;;11.10;99.90;;;;;;5085462;28;20426;-73
2023/10/30 00:03:19;;;;;;;4.03;2.17;;;11.10;99.90;;;;;;5085396;28;20184;-75
2023/10/30 00:05:45;;;;;;;6.43;1.50;;;11.10;99.90;;;;;;5087145;28;20184;-72
2023/10/30 00:08:11;;;;;;;2.20;1.60;;;11.10;99.90;;;;;;5085926;28;20686;-71
2023/10/30 00:10:36;;;;;;;2.73;1.80;;;11.20;99.90;;;;;;5084524;28;20201;-74
2023/10/30 00:13:02;;;;;;;2.00;1.47;;;11.10;99.90;;;;;;5085098;28;20208;-72
2023/10/30 00:15:28;;;;;;;3.40;1.70;;;11.10;99.90;;;;;;5085220;28;20252;-72
2023/10/30 00:17:53;;;;;;;3.07;1.60;;;11.10;99.90;;;;;;5067580;28;20530;-71
2023/10/30 00:20:19;;;;;;;4.03;1.43;;;11.20;99.90;;;;;;5084077;28;20187;-72
2023/10/30 00:22:45;;;;;;;1.93;1.20;;;11.20;99.90;;;;;;5083963;28;20223;-72
2023/10/30 00:25:11;;;;;;;1.97;1.27;;;11.20;99.90;;;;;;5085489;28;20189;-71
2023/10/30 00:27:36;;;;;;;2.07;1.00;;;11.10;99.90;;;;;;5067752;28;20177;-72
2023/10/30 00:30:02;;;;;;;2.43;1.13;;;11.10;99.90;;;;;;5090676;28;20201;-75
2023/10/30 00:32:28;;;;;;;2.83;1.53;;;11.10;99.90;;;;;;5085933;28;20204;-72
2023/10/30 00:34:53;;;;;;;5.80;1.70;;;11.20;99.90;;;;;;5061009;28;20794;-72
2023/10/30 00:37:19;;;;;;;2.07;1.03;;;11.20;99.90;;;;;;5065725;28;20187;-71
2023/10/30 00:39:45;;;;;;;1.60;0.90;;;11.20;99.90;;;;;;5089823;28;20195;-72
2023/10/30 00:42:10;;;;;;;3.43;1.10;;;11.20;99.90;;;;;;5089027;28;20208;-72
2023/10/30 00:44:38;;;;;;;2.10;1.10;;;11.30;99.90;;;;;;5087755;28;20311;-71
2023/10/30 00:47:04;;;;;;;2.77;1.23;;;11.20;99.90;;;;;;5086643;28;20199;-73
2023/10/30 00:49:31;;;;;;;3.63;1.67;;;11.20;99.90;;;;;;5087592;28;20477;-71
2023/10/30 00:51:56;;;;;;;2.27;1.50;;;11.20;99.90;;;;;;5088244;28;20541;-73
2023/10/30 00:54:22;;;;;;;4.60;1.57;;;11.30;99.90;;;;;;5084545;28;20524;-72
2023/10/30 00:56:48;;;;;;;3.17;1.80;;;11.30;99.90;;;;;;5086491;28;20768;-72
2023/10/30 00:59:13;;;;;;;3.07;1.70;;;11.20;99.90;;;;;;5089027;28;20664;-73
2023/10/30 01:01:39;;;;;;;3.00;1.50;;;11.30;99.90;;;;;;5089188;28;20200;-73
2023/10/30 01:04:08;;;;;;;10.00;2.17;;;11.30;99.90;;;;;;5086701;28;20614;-71
2023/10/30 01:06:34;;;;;;;3.03;1.90;;;11.30;99.90;;;;;;5089657;28;20179;-71
2023/10/30 01:08:59;;;;;;;6.93;3.40;;;11.30;99.90;;;;;;5086343;28;20997;-72
2023/10/30 01:11:25;;;;;;;6.17;3.97;;;11.40;99.90;;;;;;5087663;28;20192;-74
2023/10/30 01:13:51;;;;;;;6.47;3.90;;;11.40;99.90;;;;;;5087502;28;20180;-71
2023/10/30 01:16:16;;;;;;;4.40;2.93;;;11.30;99.90;;;;;;5089983;28;20189;-72
2023/10/30 01:18:42;;;;;;;7.23;3.20;;;11.20;99.90;;;;;;5088267;28;20181;-73
2023/10/30 01:21:12;;;;;;;3.57;2.30;;;11.20;99.90;;;;;;5084915;28;20181;-73
2023/10/30 01:23:38;;;;;;;3.87;2.47;;;11.20;99.90;;;;;;5087542;28;20180;-72
2023/10/30 01:26:04;;;;;;;4.67;2.70;;;11.30;99.90;;;;;;5087390;28;20427;-72
2023/10/30 01:28:29;;;;;;;6.20;3.10;;;11.30;99.90;;;;;;5086931;28;20204;-72
2023/10/30 01:30:55;;;;;;;3.33;2.63;;;11.20;99.90;;;;;;5087558;28;20485;-72
2023/10/30 01:33:22;;;;;;;3.67;2.20;;;11.20;99.90;;;;;;5086230;28;20669;-71
2023/10/30 01:35:48;;;;;;;3.40;2.10;;;11.20;99.90;;;;;;5089059;28;20632;-73
2023/10/30 01:38:14;;;;;;;4.53;2.33;;;11.20;99.90;;;;;;5092358;28;20699;-72
2023/10/30 01:40:50;;;;;;;5.60;3.17;;;11.20;99.90;;;;;;5090084;28;20209;-73
2023/10/30 01:43:16;;;;;;;5.10;3.20;;;11.30;99.90;;;;;;5086048;28;20203;-72
2023/10/30 01:45:42;;;;;;;5.27;3.37;;;11.30;99.90;;;;;;5088057;28;20426;-71
2023/10/30 01:48:08;;;;;;;7.40;3.87;;;11.30;99.90;;;;;;5069245;28;20426;-71
2023/10/30 01:50:36;;;;;;;4.07;3.10;;;11.20;99.90;;;;;;5087145;28;20208;-72
2023/10/30 01:53:03;;;;;;;8.03;3.83;;;11.20;99.90;;;;;;5086085;28;20954;-72
2023/10/30 01:55:29;;;;;;;5.77;3.07;;;11.30;99.90;;;;;;5090987;28;20422;-71
2023/10/30 01:57:55;;;;;;;7.37;3.37;;;11.20;99.90;;;;;;5089090;28;20476;-72
2023/10/30 02:00:22;;;;;;;4.73;2.80;;;11.20;99.90;;;;;;5061906;28;20955;-71
2023/10/30 02:02:50;;;;;;;8.50;3.37;;;11.20;99.90;;;;;;5088391;28;20580;-72
2023/10/30 02:05:16;;;;;;;4.57;2.67;;;11.30;99.90;;;;;;5087805;28;20927;-72
2023/10/30 02:07:41;;;;;;;5.00;3.13;;;11.30;99.90;;;;;;5068896;28;20426;-72
2023/10/30 02:10:07;;;;;;;4.77;3.30;;;11.30;99.90;;;;;;5087331;28;20222;-72
2023/10/30 02:12:34;;;;;;;4.47;2.37;;;11.20;99.90;;;;;;5087976;28;20200;-72
2023/10/30 02:15:00;;;;;;;4.80;2.50;;;11.20;99.90;;;;;;5088323;28;20530;-72
2023/10/30 02:17:25;;;;;;;9.93;3.60;;;11.10;99.90;;;;;;5090457;28;20471;-72
2023/10/30 02:19:51;;;;;;;3.23;2.40;;;11.20;99.90;;;;;;5089283;28;20256;-72
2023/10/30 02:22:17;;;;;;;5.53;3.00;;;11.20;99.90;;;;;;5087257;28;20212;-72
2023/10/30 02:24:42;;;;;;;3.80;2.40;;;11.20;99.90;;;;;;5086274;28;20184;-74
2023/10/30 02:27:09;;;;;;;4.90;2.87;;;11.20;99.90;;;;;;5091328;28;20680;-72
2023/10/30 02:29:35;;;;;;;4.13;2.27;;;11.20;99.90;;;;;;5096698;28;20230;-72
2023/10/30 02:32:00;;;;;;;3.90;2.30;;;11.10;99.90;;;;;;5102873;28;20439;-81
2023/10/30 02:34:26;;;;;;;3.50;1.77;;;11.00;99.90;;;;;;5114764;28;20226;-80
2023/10/30 02:36:54;;;;;;;4.00;1.90;;;11.00;99.90;;;;;;5112863;28;20205;-79
2023/10/30 02:39:19;;;;;;;5.37;2.50;;;11.10;99.90;;;;;;5113885;28;20196;-81
2023/10/30 02:41:45;;;;;;;3.07;1.30;;;11.10;99.90;;;;;;5114982;28;20470;-78
2023/10/30 02:44:10;;;;;;;1.90;1.27;;;11.10;99.90;;;;;;5104468;28;20249;-72
2023/10/30 02:46:36;;;;;;;1.97;1.13;;;11.10;99.90;;;;;;5087828;28;20240;-71
2023/10/30 02:49:02;;;;;;;2.10;1.03;;;11.10;99.90;;;;;;5086348;28;20622;-71
2023/10/30 02:51:27;;;;;;;2.17;0.93;;;11.20;99.90;;;;;;5068698;28;20188;-72
2023/10/30 02:53:53;;;;;;;4.03;0.87;;;11.20;99.90;;;;;;5085145;28;20681;-72
2023/10/30 02:56:18;;;;;;;3.13;1.10;;;11.20;99.90;;;;;;5086064;28;20237;-74
2023/10/30 02:58:44;;;;;;;2.17;0.93;;;11.20;99.90;;;;;;5069889;28;20219;-74
2023/10/30 03:01:10;;;;;;;1.50;0.90;;;11.30;99.90;;;;;;5086182;28;20193;-72
2023/10/30 03:03:35;;;;;;;1.77;1.10;;;11.20;99.90;;;;;;5086794;28;20546;-72
2023/10/30 03:06:01;;;;;;;1.70;0.90;;;11.30;99.90;;;;;;5084413;28;20180;-72
2023/10/30 03:08:26;;;;;;;1.83;0.93;;;11.20;99.90;;;;;;5087661;28;20180;-72
2023/10/30 03:10:52;;;;;;;1.50;1.10;;;11.20;99.90;;;;;;5064625;28;20295;-73
2023/10/30 03:13:17;;;;;;;2.03;0.90;;;11.20;99.90;;;;;;5086285;28;20180;-72
2023/10/30 03:15:45;;;;;;;1.90;1.23;;;11.20;99.90;;;;;;5068506;28;20207;-71
2023/10/30 03:18:11;;;;;;;2.13;1.00;;;11.20;99.90;;;;;;5084421;28;20553;-70
2023/10/30 03:20:36;;;;;;;3.73;1.33;;;11.20;99.90;;;;;;5084088;28;20434;-72
2023/10/30 03:23:02;;;;;;;3.07;1.23;;;11.20;99.90;;;;;;5085968;28;20202;-74
2023/10/30 03:25:28;;;;;;;3.60;0.80;;;11.20;99.90;;;;;;5081922;28;20176;-76
2023/10/30 03:27:53;;;;;;;1.50;0.80;;;11.20;99.90;;;;;;5085516;28;20641;-72
2023/10/30 03:30:19;;;;;;;2.20;1.03;;;11.20;99.90;;;;;;5083678;28;20215;-75
2023/10/30 03:32:44;;;;;;;1.97;1.17;;;11.10;99.90;;;;;;5083985;28;20942;-72
2023/10/30 03:35:10;;;;;;;13.60;1.17;;;11.10;99.90;;;;;;5084436;28;20208;-72
2023/10/30 03:37:36;;;;;;;2.87;1.40;;;11.00;99.90;;;;;;5085434;28;20180;-71
2023/10/30 03:40:01;;;;;;;1.90;1.10;;;11.00;99.90;;;;;;5084053;28;20177;-74
2023/10/30 03:42:27;;;;;;;1.43;0.93;;;11.00;99.90;;;;;;5084794;28;20805;-72
2023/10/30 03:44:52;;;;;;;2.63;1.17;;;11.00;99.90;;;;;;5085163;28;20227;-71
2023/10/30 03:47:18;;;;;;;2.30;1.17;;;10.90;99.90;;;;;;5085761;28;20183;-72
2023/10/30 03:49:44;;;;;;;1.80;1.27;;;10.90;99.90;;;;;;5083502;28;20200;-71
2023/10/30 03:52:10;;;;;;;2.13;1.07;;;10.90;99.90;;;;;;5065726;28;20622;-72
2023/10/30 03:54:35;;;;;;;2.03;1.20;;;10.90;99.90;;;;;;5085645;28;20514;-73
2023/10/30 03:57:01;;;;;;;1.90;1.27;;;10.80;99.90;;;;;;5087314;28;20181;-72
2023/10/30 03:59:27;;;;;;;1.80;1.00;;;10.80;99.90;;;;;;5086479;28;20180;-72
2023/10/30 04:01:52;;;;;;;4.23;0.80;;;10.70;99.90;;;;;;5086590;28;20199;-72
2023/10/30 04:04:18;;;;;;;1.73;0.93;;;10.70;99.90;;;;;;5091096;28;20555;-74
2023/10/30 04:06:43;;;;;;;2.80;1.10;;;10.60;99.90;;;;;;5089901;28;20226;-71
2023/10/30 04:09:09;;;;;;;1.97;0.83;;;10.50;99.90;;;;;;5089456;28;20184;-72
2023/10/30 04:11:35;;;;;;;3.87;1.13;;;10.40;99.90;;;;;;5088877;28;20196;-74
2023/10/30 04:14:00;;;;;;;2.07;1.53;;;10.30;99.90;;;;;;5088890;28;20169;-72
2023/10/30 04:16:28;;;;;;;3.70;1.87;;;10.30;99.90;;;;;;5088081;28;20187;-71
2023/10/30 04:18:54;;;;;;;4.13;2.40;;;10.30;99.90;;;;;;5088107;28;20173;-71
2023/10/30 04:21:19;;;;;;;2.97;1.80;;;10.30;99.90;;;;;;5088726;28;20469;-72
2023/10/30 04:23:45;;;;;;;5.30;2.63;;;10.30;99.90;;;;;;5089838;28;20631;-71
2023/10/30 04:26:10;;;;;;;4.40;2.93;;;10.30;99.90;;;;;;5087985;28;20192;-72
2023/10/30 04:28:36;;;;;;;4.67;2.50;;;10.30;99.90;;;;;;5087326;28;20872;-72
2023/10/30 04:31:04;;;;;;;3.10;2.10;;;10.30;99.90;;;;;;5089355;28;20285;-72
2023/10/30 04:33:29;;;;;;;4.10;1.90;;;10.30;99.90;;;;;;5091071;28;20233;-69
2023/10/30 04:35:55;;;;;;;16.10;2.63;;;10.30;99.90;;;;;;5089565;28;20926;-73
2023/10/30 04:38:24;;;;;;;5.10;2.77;;;10.30;99.90;;;;;;5087634;28;20172;-73
2023/10/30 04:40:49;;;;;;;3.70;2.30;;;10.40;99.90;;;;;;5087779;28;20188;-72
2023/10/30 04:43:15;;;;;;;3.90;2.30;;;10.40;99.90;;;;;;5087544;28;20442;-74
2023/10/30 04:45:40;;;;;;;4.83;2.73;;;10.30;99.90;;;;;;5084205;28;20335;-72
2023/10/30 04:48:06;;;;;;;4.20;2.83;;;10.40;99.90;;;;;;5087831;28;20637;-72
2023/10/30 04:50:32;;;;;;;3.70;2.50;;;10.40;99.90;;;;;;5087674;28;20285;-72
2023/10/30 04:52:57;;;;;;;5.30;2.20;;;10.40;99.90;;;;;;5086123;28;20197;-72
2023/10/30 04:55:23;;;;;;;6.63;2.60;;;10.40;99.90;;;;;;5086895;28;20198;-72
2023/10/30 04:57:48;;;;;;;3.30;2.30;;;10.40;99.90;;;;;;5069745;28;20188;-71
2023/10/30 05:00:14;;;;;;;3.13;2.03;;;10.30;99.90;;;;;;5086429;28;20676;-71
2023/10/30 05:02:42;;;;;;;3.90;2.10;;;10.30;99.90;;;;;;5086662;28;20212;-72
2023/10/30 05:05:08;;;;;;;6.40;2.47;;;10.30;99.90;;;;;;5071990;28;20430;-74
2023/10/30 05:07:34;;;;;;;3.83;2.30;;;10.30;99.90;;;;;;5090707;28;20900;-73
2023/10/30 05:09:59;;;;;;;4.80;2.27;;;10.30;99.90;;;;;;5095966;28;20549;-71
2023/10/30 05:12:25;;;;;;;3.67;2.27;;;10.30;99.90;;;;;;5105306;28;20287;-71
2023/10/30 05:14:51;;;;;;;5.20;2.23;;;10.10;99.90;;;;;;5091526;28;20207;-72
2023/10/30 05:17:16;;;;;;;4.57;2.50;;;10.10;99.90;;;;;;5090457;28;20195;-72
2023/10/30 05:19:42;;;;;;;2.77;2.00;;;10.00;99.90;;;;;;5077183;28;20192;-75
2023/10/30 05:22:07;;;;;;;3.57;2.30;;;9.90;99.90;;;;;;5091198;28;20274;-72
2023/10/30 05:24:33;;;;;;;3.20;1.90;;;9.80;99.90;;;;;;5083568;28;20203;-72
2023/10/30 05:26:59;;;;;;;5.83;3.17;;;9.70;99.90;;;;;;5094338;28;20192;-73
2023/10/30 05:29:24;;;;;;;3.93;2.40;;;9.60;99.90;;;;;;5107912;28;20207;-74
2023/10/30 05:31:50;;;;;;;3.60;2.20;;;9.60;99.90;;;;;;5093937;28;20227;-70
2023/10/30 05:34:15;;;;;;;6.47;3.30;;;9.50;99.90;;;;;;5092799;28;20185;-72
2023/10/30 05:36:41;;;;;;;5.40;2.73;;;9.60;99.90;;;;;;5080051;28;20275;-73
2023/10/30 05:39:07;;;;;;;12.50;2.93;;;9.50;99.90;;;;;;5085657;28;20338;-72
2023/10/30 05:41:32;;;;;;;4.67;2.40;;;9.30;99.90;;;;;;5080164;28;20245;-70
2023/10/30 05:43:58;;;;;;;4.33;2.40;;;9.40;99.90;;;;;;5080371;28;20461;-71
2023/10/30 05:46:23;;;;;;;4.07;2.47;;;9.30;99.90;;;;;;5078546;28;20200;-72
2023/10/30 05:48:49;;;;;;;5.90;2.80;;;9.30;99.90;;;;;;5083650;28;20188;-72
2023/10/30 05:51:14;;;;;;;5.97;2.80;;;9.30;99.90;;;;;;5063166;28;20689;-72
2023/10/30 05:53:41;;;;;;;13.63;4.23;;;9.30;99.90;;;;;;5064033;28;20246;-72
2023/10/30 05:56:07;;;;;;;7.43;4.50;;;9.30;99.90;;;;;;5082412;28;20622;-76
2023/10/30 05:58:33;;;;;;;5.63;3.63;;;9.40;99.90;;;;;;5082553;28;20451;-73
2023/10/30 06:00:59;;;;;;;4.07;2.47;;;9.30;99.90;;;;;;5083043;28;20181;-72
2023/10/30 06:03:24;;;;;;;6.30;3.40;;;9.30;99.90;;;;;;5084984;28;20203;-75
2023/10/30 06:05:50;;;;;;;7.10;3.80;;;9.20;99.90;;;;;;5090588;28;20188;-73
2023/10/30 06:08:18;;;;;;;8.63;4.13;;;9.20;99.90;;;;;;5091752;28;20267;-75
2023/10/30 06:10:43;;;;;;;8.80;5.70;;;9.30;99.90;;;;;;5091673;28;20247;-75
2023/10/30 06:13:09;;;;;;;14.90;7.00;;;9.20;99.90;;;;;;5092257;28;20469;-73
2023/10/30 06:15:35;;;;;;;18.07;6.30;;;9.30;99.90;;;;;;5075460;28;20183;-73
2023/10/30 06:18:03;;;;;;;13.80;5.80;;;9.20;99.90;;;;;;5092741;28;20181;-74
2023/10/30 06:20:29;;;;;;;7.17;5.20;;;9.20;99.90;;;;;;5091338;28;20180;-73
2023/10/30 06:22:57;;;;;;;7.87;4.10;;;9.10;99.90;;;;;;5084865;28;20450;-73
2023/10/30 06:25:23;;;;;;;8.90;5.97;;;9.10;99.90;;;;;;5091081;28;20180;-73
2023/10/30 06:27:49;;;;;;;8.43;4.70;;;9.20;99.90;;;;;;5065574;28;20454;-74
2023/10/30 06:30:14;;;;;;;8.57;5.43;;;9.20;99.90;;;;;;5091263;28;20465;-73
2023/10/30 06:32:40;;;;;;;16.90;6.13;;;9.30;99.90;;;;;;5063173;28;20270;-76
2023/10/30 06:35:07;;;;;;;13.10;6.50;;;9.30;99.90;;;;;;5077764;28;20653;-74
2023/10/30 06:37:33;;;;;;;9.00;5.47;;;9.40;99.90;;;;;;5101718;28;20413;-73
2023/10/30 06:39:59;;;;;;;8.70;5.40;;;9.30;99.90;;;;;;5087713;28;20422;-73
2023/10/30 06:42:24;;;;;;;9.23;5.73;;;9.30;99.90;;;;;;5097607;28;21092;-76
2023/10/30 06:44:51;;;;;;;9.37;5.50;;;9.40;99.90;;;;;;5091815;28;20236;-73
2023/10/30 06:47:17;;;;;;;13.93;5.57;;;9.40;99.90;;;;;;5092020;28;20186;-73
2023/10/30 06:49:43;;;;;;;11.00;5.33;;;9.40;99.90;;;;;;5096667;28;20462;-73
2023/10/30 06:52:09;;;;;;;11.50;5.13;;;9.40;99.90;;;;;;5091969;28;20439;-72
2023/10/30 06:54:34;;;;;;;18.93;5.27;;;9.40;99.90;;;;;;5091620;28;20180;-72
2023/10/30 06:57:00;;;;;;;7.87;5.00;;;9.40;99.90;;;;;;5091761;28;20227;-72
2023/10/30 06:59:27;;;;;;;8.63;5.70;;;9.50;99.90;;;;;;5091752;28;20189;-72
2023/10/30 07:01:52;;;;;;;7.77;4.60;;;9.50;99.90;;;;;;5072838;28;20286;-73
2023/10/30 07:04:21;;;;;;;7.70;4.83;;;9.50;99.90;;;;;;5095622;28;20905;-75
2023/10/30 07:06:46;;;;;;;7.17;4.47;;;9.50;99.90;;;;;;5091914;28;20184;-73
2023/10/30 07:09:12;;;;;;;7.60;4.93;;;9.50;99.90;;;;;;5091281;28;20449;-73
2023/10/30 07:11:39;;;;;;;10.20;5.07;;;9.50;99.90;;;;;;5091537;28;20271;-73
2023/10/30 07:14:05;;;;;;;6.63;4.10;;;9.50;99.90;;;;;;5091595;28;20563;-74
2023/10/30 07:16:32;;;;;;;13.13;6.67;;;9.50;99.90;;;;;;5091574;28;20510;-73
2023/10/30 07:18:58;;;;;;;13.17;6.00;;;9.50;99.90;;;;;;5073534;28;20987;-75
2023/10/30 07:21:25;;;;;;;15.50;7.10;;;9.60;99.90;;;;;;5092448;28;20451;-75
2023/10/30 07:23:51;;;;;;;16.17;6.90;;;9.70;99.90;;;;;;5091619;28;20497;-73
2023/10/30 07:26:17;;;;;;;16.50;7.33;;;9.70;99.90;;;;;;5091628;28;20948;-74
2023/10/30 07:28:45;;;;;;;14.17;8.00;;;9.80;99.90;;;;;;5093430;28;20184;-73
2023/10/30 07:31:11;;;;;;;17.53;8.43;;;9.80;99.90;;;;;;5097574;28;20233;-73
2023/10/30 07:33:37;;;;;;;16.07;6.70;;;9.90;99.90;;;;;;5091088;28;20843;-73
2023/10/30 07:36:03;;;;;;;15.87;7.90;;;10.00;99.90;;;;;;5085052;28;20176;-73
2023/10/30 07:38:28;;;;;;;8.60;5.60;;;10.10;99.90;;;;;;5099314;28;20664;-74
2023/10/30 07:40:54;;;;;;;14.43;6.77;;;10.10;99.90;;;;;;5091476;28;20423;-75
2023/10/30 07:43:23;;;;;;;8.17;5.23;;;10.20;99.90;;;;;;5087779;28;20697;-75
2023/10/30 07:45:52;;;;;;;10.97;5.13;;;10.30;99.90;;;;;;5092133;28;20427;-76
2023/10/30 07:48:18;;;;;;;8.60;5.00;;;10.40;99.90;;;;;;5122518;28;20448;-81
2023/10/30 07:50:44;;;;;;;11.43;4.97;;;10.50;99.90;;;;;;5125770;27;20477;-82
2023/10/30 07:53:09;;;;;;;7.90;5.17;;;10.70;99.90;;;;;;5117645;28;20177;-82
2023/10/30 07:55:39;;;;;;;8.60;5.60;;;10.70;99.90;;;;;;5100003;28;20180;-81
2023/10/30 07:58:08;;;;;;;9.33;4.87;;;10.80;99.90;;;;;;5107272;28;20260;-74
2023/10/30 08:00:34;;;;;;;8.37;4.53;;;10.80;99.90;;;;;;5090613;28;20422;-73
2023/10/30 08:03:00;;;;;;;10.80;4.43;;;11.00;99.90;;;;;;5090217;28;20525;-74
2023/10/30 08:05:27;;;;;;;15.00;4.53;;;11.20;99.90;;;;;;5091143;28;20580;-73
2023/10/30 08:07:52;;;;;;;10.67;5.00;;;11.50;99.90;;;;;;5087703;28;20181;-73
2023/10/30 08:10:18;;;;;;;9.93;5.10;;;11.70;99.90;;;;;;5084478;28;20473;-73
2023/10/30 08:12:44;;;;;;;5.20;4.07;;;11.90;99.90;;;;;;5091730;28;20200;-73
2023/10/30 08:15:10;;;;;;;6.87;3.57;;;12.40;99.90;;;;;;5092367;28;20414;-73
2023/10/30 08:17:37;;;;;;;5.37;2.90;;;12.50;99.90;;;;;;5091106;28;20472;-73
2023/10/30 08:20:04;;;;;;;10.40;3.70;;;12.90;99.90;;;;;;5091740;28;20241;-73
2023/10/30 08:22:32;;;;;;;5.10;3.07;;;13.20;99.90;;;;;;5087472;28;20488;-74
2023/10/30 08:24:58;;;;;;;7.50;3.23;;;13.30;99.90;;;;;;5093502;28;20422;-75
2023/10/30 08:27:24;;;;;;;4.20;3.03;;;13.50;99.90;;;;;;5081329;28;20422;-74
2023/10/30 08:29:50;;;;;;;4.50;2.60;;;13.60;99.90;;;;;;5088390;28;20828;-73
2023/10/30 08:32:15;;;;;;;5.70;3.03;;;13.70;99.90;;;;;;5086677;28;20208;-75
2023/10/30 08:34:41;;;;;;;4.17;2.57;;;13.40;99.90;;;;;;5091533;28;20184;-73
2023/10/30 08:37:07;;;;;;;6.70;2.83;;;13.30;99.90;;;;;;5090523;28;20179;-75
2023/10/30 08:39:32;;;;;;;4.83;2.60;;;13.10;99.90;;;;;;5084445;28;20188;-71
2023/10/30 08:41:58;;;;;;;5.67;2.00;;;13.00;99.90;;;;;;5090731;28;20201;-72
2023/10/30 08:44:24;;;;;;;6.93;2.20;;;13.10;99.90;;;;;;5080662;28;20604;-71
2023/10/30 08:46:51;;;;;;;2.70;1.43;;;13.00;99.90;;;;;;5069858;28;20241;-71
2023/10/30 08:49:17;;;;;;;3.60;2.23;;;13.00;99.90;;;;;;5067503;28;20476;-72
2023/10/30 08:51:43;;;;;;;2.53;1.70;;;12.90;99.90;;;;;;5073441;28;20442;-72
2023/10/30 08:54:09;;;;;;;3.80;1.90;;;12.90;99.90;;;;;;5073537;28;20186;-72
2023/10/30 08:56:36;;;;;;;3.17;2.20;;;12.80;99.90;;;;;;5073406;28;20411;-72
2023/10/30 08:59:03;;;;;;;5.73;1.80;;;12.90;99.90;;;;;;5063740;28;20428;-71
2023/10/30 09:01:31;;;;;;;6.60;1.67;;;12.90;99.90;;;;;;5074434;28;20443;-72
2023/10/30 09:03:57;;;;;;;2.73;1.37;;;12.90;99.90;;;;;;5064783;28;20455;-72
2023/10/30 09:06:22;;;;;;;2.87;1.33;;;12.90;99.90;;;;;;5064800;28;20440;-75
2023/10/30 09:08:48;;;;;;;5.20;1.70;;;12.90;99.90;;;;;;5067834;28;20678;-71
2023/10/30 09:11:14;;;;;;;5.93;1.30;;;12.90;99.90;;;;;;5066997;28;20213;-72
2023/10/30 09:13:39;;;;;;;2.53;1.60;;;12.90;99.90;;;;;;5054343;28;20185;-71
2023/10/30 09:16:05;;;;;;;3.20;1.47;;;12.90;99.90;;;;;;5048852;28;20187;-71
2023/10/30 09:18:31;;;;;;;3.83;1.60;;;12.90;99.90;;;;;;5073608;28;20227;-71
2023/10/30 09:20:57;;;;;;;3.30;1.90;;;13.00;99.90;;;;;;5073339;28;20419;-77
2023/10/30 09:23:23;;;;;;;3.97;1.87;;;13.00;99.90;;;;;;5071830;28;20599;-72
2023/10/30 09:25:48;;;;;;;3.17;1.83;;;13.10;99.90;;;;;;5072752;28;20189;-74
2023/10/30 09:28:14;;;;;;;2.90;0.90;;;13.10;99.90;;;;;;5071935;28;20744;-72
2023/10/30 09:30:40;;;;;;;2.70;1.40;;;13.20;99.90;;;;;;5065066;28;20314;-73
2023/10/30 09:33:07;;;;;;;5.63;1.13;;;13.30;99.90;;;;;;5060461;28;20204;-72
2023/10/30 09:35:33;;;;;;;2.07;0.97;;;13.40;99.90;;;;;;5045269;28;20570;-70
2023/10/30 09:37:59;;;;;;;4.13;2.00;;;13.40;99.90;;;;;;5068776;28;20918;-73
2023/10/30 09:40:28;;;;;;;3.10;1.57;;;13.40;99.90;;;;;;5065300;28;20512;-73
2023/10/30 09:42:54;;;;;;;7.10;2.50;;;13.50;99.90;;;;;;5067463;28;20205;-73
2023/10/30 09:45:22;;;;;;;3.63;2.13;;;13.50;99.90;;;;;;5079161;28;20511;-72
2023/10/30 09:47:57;;;;;;;3.00;1.80;;;13.50;99.90;;;;;;5073445;28;20493;-73
2023/10/30 09:50:25;;;;;;;3.10;1.70;;;13.60;99.90;;;;;;5074112;28;20455;-72
2023/10/30 09:52:55;;;;;;;4.67;2.07;;;13.60;99.90;;;;;;5075761;28;20457;-74
2023/10/30 09:55:22;;;;;;;3.83;2.10;;;13.60;99.90;;;;;;5076713;28;20935;-72
2023/10/30 09:57:49;;;;;;;3.50;2.30;;;13.70;99.90;;;;;;5080664;28;20501;-72
2023/10/30 10:00:16;;;;;;;3.10;1.50;;;13.80;99.90;;;;;;5072231;28;20415;-72
2023/10/30 10:02:43;;;;;;;5.23;1.77;;;13.90;99.90;;;;;;5071972;28;20550;-75
2023/10/30 10:05:09;;;;;;;4.63;1.90;;;13.90;99.90;;;;;;5069057;28;20419;-73
2023/10/30 10:07:36;;;;;;;2.53;1.33;;;13.90;99.90;;;;;;5068192;28;20420;-73
2023/10/30 10:10:03;;;;;;;3.23;1.53;;;13.90;99.90;;;;;;5071728;28;20538;-73
2023/10/30 10:12:30;;;;;;;3.13;1.50;;;14.00;99.90;;;;;;5072749;28;20447;-73
2023/10/30 10:14:56;;;;;;;6.50;1.20;;;14.10;99.90;;;;;;5081301;28;20956;-73
2023/10/30 10:17:22;;;;;;;3.40;1.50;;;14.00;99.90;;;;;;5083128;28;20419;-73
2023/10/30 10:19:48;;;;;;;2.47;1.40;;;14.10;99.90;;;;;;5081956;28;20426;-72
2023/10/30 10:22:27;;;;;;;2.17;1.43;;;14.10;99.90;;;;;;5076412;28;20287;-74
2023/10/30 10:24:53;;;;;;;3.20;1.20;;;14.10;99.90;;;;;;5080515;28;20984;-73
2023/10/30 10:27:19;;;;;;;2.83;1.17;;;14.20;99.90;;;;;;5066279;28;20521;-74
2023/10/30 10:29:52;;;;;;;3.63;1.17;;;14.30;99.90;;;;;;5052854;28;20205;-73
2023/10/30 10:32:17;;;;;;;2.47;1.10;;;14.30;99.90;;;;;;5065954;28;20700;-73
2023/10/30 10:34:46;;;;;;;3.80;1.17;;;14.20;99.90;;;;;;5056635;28;20427;-74
2023/10/30 10:37:18;;;;;;;1.43;0.77;;;14.30;99.90;;;;;;5072482;28;20555;-73
2023/10/30 10:39:53;;;;;;;3.10;1.40;;;14.30;99.90;;;;;;5073874;28;20892;-72
2023/10/30 10:42:20;;;;;;;1.93;0.90;;;14.40;99.90;;;;;;5072839;28;20446;-73
2023/10/30 10:44:48;;;;;;;3.83;1.97;;;14.50;99.90;;;;;;5074215;28;20459;-73
2023/10/30 10:47:14;;;;;;;2.00;1.20;;;14.50;99.90;;;;;;5080068;28;20515;-72
2023/10/30 10:49:41;;;;;;;3.70;1.77;;;14.50;99.90;;;;;;5072990;28;20517;-73
2023/10/30 10:52:12;;;;;;;4.30;1.40;;;14.40;99.90;;;;;;5071138;28;20852;-73
2023/10/30 10:54:53;;;;;;;3.20;1.10;;;14.40;99.90;;;;;;5050215;28;20478;-73
2023/10/30 10:57:21;;;;;;;2.00;1.17;;;14.40;99.90;;;;;;5054051;28;20451;-75
2023/10/30 10:59:57;;;;;;;2.97;1.23;;;14.30;99.90;;;;;;5080428;28;20840;-73
2023/10/30 11:02:31;;;;;;;5.00;1.23;;;14.40;99.90;;;;;;5064252;28;20466;-73
2023/10/30 11:04:58;;;;;;;2.37;1.13;;;14.40;99.90;;;;;;5075377;28;20502;-75
2023/10/30 11:07:51;;;;;;;2.57;1.33;;;14.50;99.90;;;;;;5076380;28;20442;-72
2023/10/30 11:10:27;;;;;;;2.83;1.60;;;14.40;99.90;;;;;;5031842;28;21007;-73
2023/10/30 11:13:18;;;;;;;7.33;1.50;;;14.30;99.90;;;;;;5082664;28;20427;-72
2023/10/30 11:16:00;;;;;;;2.47;1.50;;;14.30;99.90;;;;;;5073353;28;20477;-73
2023/10/30 11:18:27;;;;;;;3.40;1.43;;;14.30;99.90;;;;;;5077709;28;20431;-73
2023/10/30 11:21:09;;;;;;;3.97;1.37;;;14.40;99.90;;;;;;5066448;28;20966;-73
2023/10/30 11:23:59;;;;;;;1.90;1.10;;;14.30;99.90;;;;;;5073107;28;20417;-71
2023/10/30 11:26:33;;;;;;;4.13;1.57;;;14.30;99.90;;;;;;5054712;28;20995;-74
2023/10/30 11:29:12;;;;;;;6.43;1.10;;;14.30;99.90;;;;;;5058570;28;20845;-75
2023/10/30 11:32:02;;;;;;;2.63;1.40;;;14.20;99.90;;;;;;5069018;28;20510;-73
2023/10/30 11:34:31;;;;;;;3.03;1.30;;;14.20;99.90;;;;;;5075246;28;20435;-73
2023/10/30 11:37:12;;;;;;;2.60;1.30;;;14.30;99.90;;;;;;5071229;28;20407;-73
2023/10/30 11:39:42;;;;;;;3.43;1.33;;;14.30;99.90;;;;;;5074534;28;20418;-72
2023/10/30 11:42:25;;;;;;;2.53;1.63;;;14.20;99.90;;;;;;5076650;28;20446;-73
2023/10/30 11:44:52;;;;;;;2.57;1.57;;;14.30;99.90;;;;;;5065642;28;20479;-72
2023/10/30 11:47:25;;;;;;;1.97;1.03;;;14.30;99.90;;;;;;5077284;28;20427;-73
2023/10/30 11:49:55;;;;;;;3.90;1.60;;;14.40;99.90;;;;;;5080108;28;20493;-73
2023/10/30 11:52:20;;;;;;;1.47;0.80;;;14.30;99.90;;;;;;5070026;28;20533;-73
2023/10/30 11:54:46;;;;;;;2.00;1.57;;;14.40;99.90;;;;;;5069804;28;20503;-73
2023/10/30 11:57:12;;;;;;;2.33;1.10;;;14.30;99.90;;;;;;5065323;28;20180;-73
2023/10/30 11:59:38;;;;;;;8.53;1.93;;;14.40;99.90;;;;;;5069436;28;20199;-73
2023/10/30 12:02:07;;;;;;;2.40;1.30;;;14.30;99.90;;;;;;5066288;28;20201;-74
2023/10/30 12:04:33;;;;;;;4.13;1.47;;;14.40;99.90;;;;;;5080140;28;20429;-71
2023/10/30 12:06:59;;;;;;;3.17;1.33;;;14.50;99.90;;;;;;5074759;28;20427;-73
2023/10/30 12:09:28;;;;;;;2.43;0.90;;;14.70;99.90;;;;;;5072420;28;20781;-73
2023/10/30 12:11:55;;;;;;;1.60;0.90;;;14.90;99.90;;;;;;5076453;28;20200;-75
2023/10/30 12:14:21;;;;;;;2.17;0.80;;;15.10;99.90;;;;;;5073614;28;20427;-74
2023/10/30 12:16:51;;;;;;;2.53;1.27;;;15.20;99.90;;;;;;5069574;28;20776;-73
2023/10/30 12:19:20;;;;;;;6.33;1.90;;;15.30;99.90;;;;;;5079174;28;20280;-73
2023/10/30 12:21:50;;;;;;;2.13;1.10;;;15.30;99.90;;;;;;5078764;28;20474;-75
2023/10/30 12:24:19;;;;;;;2.17;0.90;;;15.30;99.90;;;;;;5088513;28;20418;-74
2023/10/30 12:26:46;;;;;;;2.60;1.13;;;15.30;99.90;;;;;;5083432;28;20435;-73
2023/10/30 12:29:19;;;;;;;2.53;1.00;;;15.30;99.90;;;;;;5089611;28;20408;-73
2023/10/30 12:31:49;;;;;;;1.83;1.13;;;15.30;99.90;;;;;;5112849;28;20519;-81
2023/10/30 12:34:16;;;;;;;2.40;1.40;;;15.30;99.90;;;;;;5096261;28;20435;-82
2023/10/30 12:36:42;;;;;;;2.00;0.93;;;15.20;99.90;;;;;;5106353;28;20467;-82
2023/10/30 12:39:15;;;;;;;3.40;1.20;;;15.30;99.90;;;;;;5106688;28;20441;-81
2023/10/30 12:41:40;;;;;;;2.53;1.30;;;15.40;99.90;;;;;;5080968;28;20538;-76
2023/10/30 12:44:06;;;;;;;3.40;1.80;;;15.40;99.90;;;;;;5085251;28;20465;-73
2023/10/30 12:46:32;;;;;;;3.30;1.50;;;15.40;99.90;;;;;;5069161;28;20208;-73